Terminal Aerodrome Forecast
Issued by NWS Jackson, MS

Home | Current Version | Previous Version | Text Only | Print | Product List | Glossary On
Versions: 1 2 3 4 5 6 7 8 9 10 11 12 13 14 15 16 17 18
000
FTUS44 KJAN 241124
TAFMEI
TAF
KMEI 241124Z 2412/2512 00000KT 2SM BR SCT002
     FM241500 17005KT P6SM SCT250
     FM250900 19003KT 5SM BR SCT005 BKN250=

USA.gov is the U.S. government's official web portal to all federal, state and local government web resources and services.